Time;durP1;ratioP1;P1;durP2;ratioP2;P2;SDS_P1;SDS_P2;PMS_P1;PMS_P2;Temp;Humidity;BMP_temperature;BMP_pressure;BME280_temperature;BME280_humidity;BME280_pressure;Samples;Min_cycle;Max_cycle;Signal;HPM_P1;HPM_P2
2021/05/10 00:02:12;;;;;;;28.45;15.13;;;;;;;;;;4946530;29;20048;-56
2021/05/10 00:04:38;;;;;;;20.25;12.05;;;;;;;;;;4944040;28;20491;-57
2021/05/10 00:07:05;;;;;;;20.92;12.40;;;;;;;;;;4947535;28;20039;-56
2021/05/10 00:09:31;;;;;;;17.00;11.38;;;;;;;;;;4944227;28;20038;-57
2021/05/10 00:11:57;;;;;;;20.15;10.82;;;;;;;;;;4949876;28;20643;-57
2021/05/10 00:14:38;;;;;;;20.75;10.85;;;;;;;;;;4949657;28;20554;-54
2021/05/10 00:17:05;;;;;;;17.77;10.95;;;;;;;;;;4955621;28;20394;-52
2021/05/10 00:19:33;;;;;;;;;;;;;;;;;;4948126;28;20046;-56
2021/05/10 00:21:59;;;;;;;17.58;9.07;;;;;;;;;;4952962;28;19922;-55
2021/05/10 00:24:25;;;;;;;21.35;10.38;;;;;;;;;;4949624;28;20130;-57
2021/05/10 00:26:52;;;;;;;14.67;9.47;;;;;;;;;;4948149;28;20066;-56
2021/05/10 00:29:19;;;;;;;17.23;9.55;;;;;;;;;;4950012;28;20693;-53
2021/05/10 00:31:47;;;;;;;17.02;9.70;;;;;;;;;;4949939;28;20141;-55
2021/05/10 00:34:13;;;;;;;20.88;10.85;;;;;;;;;;4948647;28;20522;-56
2021/05/10 00:36:39;;;;;;;17.73;9.82;;;;;;;;;;4941534;28;20090;-55
2021/05/10 00:39:06;;;;;;;15.13;10.07;;;;;;;;;;4949712;28;20050;-56
2021/05/10 00:41:33;;;;;;;16.73;9.43;;;;;;;;;;4951675;28;20418;-54
2021/05/10 00:43:59;;;;;;;19.67;11.50;;;;;;;;;;4950502;28;20053;-56
2021/05/10 00:46:25;;;;;;;28.00;11.65;;;;;;;;;;4952942;28;20046;-53
2021/05/10 00:48:52;;;;;;;24.40;11.18;;;;;;;;;;4942758;29;20391;-56
2021/05/10 00:51:18;;;;;;;19.15;11.43;;;;;;;;;;4952046;28;20043;-56
2021/05/10 00:53:44;;;;;;;17.42;9.48;;;;;;;;;;4944512;29;20118;-56
2021/05/10 00:56:12;;;;;;;25.67;11.32;;;;;;;;;;4950243;28;20508;-54
2021/05/10 00:58:39;;;;;;;15.00;10.10;;;;;;;;;;4947325;28;20490;-53
2021/05/10 01:01:05;;;;;;;26.35;11.20;;;;;;;;;;4951048;28;20094;-57
2021/05/10 01:03:31;;;;;;;18.42;11.25;;;;;;;;;;4945191;28;20043;-56
2021/05/10 01:05:58;;;;;;;22.38;11.25;;;;;;;;;;4951998;28;20066;-56
2021/05/10 01:08:24;;;;;;;19.05;11.13;;;;;;;;;;4956427;28;20043;-57
2021/05/10 01:10:51;;;;;;;17.08;10.90;;;;;;;;;;4950113;29;20043;-56
2021/05/10 01:13:17;;;;;;;25.65;11.18;;;;;;;;;;4945010;29;20062;-57
2021/05/10 01:15:47;;;;;;;22.50;11.55;;;;;;;;;;4953755;28;20048;-56
2021/05/10 01:18:14;;;;;;;15.93;9.70;;;;;;;;;;4947244;28;20470;-56
2021/05/10 01:20:41;;;;;;;11.63;8.43;;;;;;;;;;4949449;28;20143;-56
2021/05/10 01:23:08;;;;;;;20.75;9.63;;;;;;;;;;4946332;28;20112;-55
2021/05/10 01:25:34;;;;;;;20.40;11.10;;;;;;;;;;4954632;28;20047;-55
2021/05/10 01:28:01;;;;;;;17.90;10.48;;;;;;;;;;4955170;28;20102;-56
2021/05/10 01:30:30;;;;;;;19.38;10.70;;;;;;;;;;4952941;28;20047;-51
2021/05/10 01:32:58;;;;;;;15.38;10.30;;;;;;;;;;4949455;28;20043;-56
2021/05/10 01:35:35;;;;;;;17.60;10.40;;;;;;;;;;4946851;28;20099;-55
2021/05/10 01:38:02;;;;;;;;;;;;;;;;;;4950196;28;20082;-54
2021/05/10 01:40:28;;;;;;;20.60;11.43;;;;;;;;;;4951863;28;20113;-55
2021/05/10 01:42:56;;;;;;;;;;;;;;;;;;4947762;28;20058;-55
2021/05/10 01:45:23;;;;;;;24.10;12.40;;;;;;;;;;4949849;28;20420;-53
2021/05/10 01:47:54;;;;;;;19.67;12.30;;;;;;;;;;4948290;29;20407;-56
2021/05/10 01:50:21;;;;;;;19.30;11.98;;;;;;;;;;4954882;28;20050;-56
2021/05/10 01:52:48;;;;;;;21.03;12.37;;;;;;;;;;4954961;28;20134;-55
2021/05/10 01:55:15;;;;;;;20.17;12.93;;;;;;;;;;4947952;28;20051;-55
2021/05/10 01:57:46;;;;;;;24.63;12.98;;;;;;;;;;4951018;28;20039;-57
2021/05/10 02:00:13;;;;;;;25.63;12.77;;;;;;;;;;4947335;29;20031;-56
2021/05/10 02:02:39;;;;;;;173.60;14.55;;;;;;;;;;4946258;28;20058;-55
2021/05/10 02:05:11;;;;;;;24.73;12.95;;;;;;;;;;4950725;28;20058;-55
2021/05/10 02:07:39;;;;;;;24.38;13.45;;;;;;;;;;4951369;28;20523;-55
2021/05/10 02:10:06;;;;;;;23.98;14.40;;;;;;;;;;4950613;28;20069;-56
2021/05/10 02:12:32;;;;;;;24.20;13.25;;;;;;;;;;4936662;28;20086;-56
2021/05/10 02:14:59;;;;;;;22.50;12.75;;;;;;;;;;4951493;28;20039;-57
2021/05/10 02:17:25;;;;;;;22.40;13.45;;;;;;;;;;4944047;28;20048;-55
2021/05/10 02:19:52;;;;;;;20.40;13.18;;;;;;;;;;4953347;28;20043;-55
2021/05/10 02:22:18;;;;;;;21.13;12.70;;;;;;;;;;4945741;28;20066;-56
2021/05/10 02:24:44;;;;;;;22.20;12.95;;;;;;;;;;4956691;28;20039;-56
2021/05/10 02:27:10;;;;;;;30.73;15.50;;;;;;;;;;4950376;29;20048;-56
2021/05/10 02:29:39;;;;;;;217.50;28.67;;;;;;;;;;4946810;28;21289;-56
2021/05/10 02:32:05;;;;;;;26.17;14.68;;;;;;;;;;4950027;28;20149;-55
2021/05/10 02:34:31;;;;;;;21.67;13.75;;;;;;;;;;4947711;28;20038;-56
2021/05/10 02:36:58;;;;;;;21.00;13.07;;;;;;;;;;4952492;28;20031;-56
2021/05/10 02:39:24;;;;;;;23.48;13.13;;;;;;;;;;4950850;28;20460;-55
2021/05/10 02:41:51;;;;;;;29.65;15.18;;;;;;;;;;4956269;28;20510;-55
2021/05/10 02:44:18;;;;;;;34.33;17.23;;;;;;;;;;4945646;28;20077;-56
2021/05/10 02:46:44;;;;;;;28.10;15.43;;;;;;;;;;4949761;29;20044;-57
2021/05/10 02:49:11;;;;;;;25.70;15.88;;;;;;;;;;4950831;28;20050;-57
2021/05/10 02:51:37;;;;;;;31.15;16.40;;;;;;;;;;4947869;29;20043;-55
2021/05/10 02:54:03;;;;;;;60.10;20.50;;;;;;;;;;4945196;28;20485;-55
2021/05/10 02:56:30;;;;;;;193.02;28.15;;;;;;;;;;4943004;28;20043;-57
2021/05/10 02:58:57;;;;;;;102.63;27.35;;;;;;;;;;4948468;28;20714;-55
2021/05/10 03:01:23;;;;;;;26.75;15.90;;;;;;;;;;4936048;29;20554;-57
2021/05/10 03:03:49;;;;;;;29.23;15.25;;;;;;;;;;4945341;28;20040;-56
2021/05/10 03:06:18;;;;;;;33.33;17.00;;;;;;;;;;4949547;28;20051;-55
2021/05/10 03:08:44;;;;;;;103.65;26.33;;;;;;;;;;4946673;28;20039;-56
2021/05/10 03:11:10;;;;;;;36.25;17.85;;;;;;;;;;4948094;28;20046;-57
2021/05/10 03:13:37;;;;;;;64.03;24.88;;;;;;;;;;4954869;28;20039;-55
2021/05/10 03:16:03;;;;;;;130.20;27.15;;;;;;;;;;4950276;28;20039;-56
2021/05/10 03:18:29;;;;;;;33.83;17.17;;;;;;;;;;4950114;28;20118;-56
2021/05/10 03:20:56;;;;;;;509.95;30.65;;;;;;;;;;4949824;28;20113;-56
2021/05/10 03:23:22;;;;;;;285.48;23.55;;;;;;;;;;4947782;28;20050;-57
2021/05/10 03:25:49;;;;;;;526.40;34.33;;;;;;;;;;4951969;28;20107;-56
2021/05/10 03:28:16;;;;;;;34.97;17.25;;;;;;;;;;4949582;28;20077;-54
2021/05/10 03:30:42;;;;;;;49.45;20.63;;;;;;;;;;4946655;29;20043;-56
2021/05/10 03:33:08;;;;;;;770.30;53.63;;;;;;;;;;4948477;28;20122;-56
2021/05/10 03:35:35;;;;;;;65.75;19.67;;;;;;;;;;4949813;29;20043;-56
2021/05/10 03:38:01;;;;;;;36.38;18.25;;;;;;;;;;4951832;28;20039;-56
2021/05/10 03:40:27;;;;;;;44.00;20.83;;;;;;;;;;4946002;28;20066;-56
2021/05/10 03:42:54;;;;;;;27.50;16.57;;;;;;;;;;4943968;28;20078;-56
2021/05/10 03:45:21;;;;;;;27.88;17.00;;;;;;;;;;4948786;29;20043;-54
2021/05/10 03:47:47;;;;;;;38.55;17.30;;;;;;;;;;4949596;28;20802;-56
2021/05/10 03:50:15;;;;;;;51.60;12.50;;;;;;;;;;4952214;28;20043;-55
2021/05/10 03:52:41;;;;;;;600.13;29.52;;;;;;;;;;4948959;28;20073;-55
2021/05/10 03:55:08;;;;;;;23.58;12.93;;;;;;;;;;4946270;28;20052;-57
2021/05/10 03:57:37;;;;;;;41.58;18.15;;;;;;;;;;4947591;28;20042;-52
2021/05/10 04:00:09;;;;;;;100.10;18.67;;;;;;;;;;4948292;28;20071;-55
2021/05/10 04:02:35;;;;;;;152.90;22.02;;;;;;;;;;4950808;28;20120;-54
2021/05/10 04:05:32;;;;;;;235.88;20.67;;;;;;;;;;4934752;29;20047;-55
2021/05/10 04:08:21;;;;;;;481.88;21.45;;;;;;;;;;4930942;28;20046;-56
2021/05/10 04:11:00;;;;;;;133.73;13.98;;;;;;;;;;4944419;28;20522;-56
2021/05/10 04:13:36;;;;;;;436.52;23.80;;;;;;;;;;4947945;28;20165;-53
2021/05/10 04:16:04;;;;;;;416.13;19.83;;;;;;;;;;4944669;28;20039;-50
2021/05/10 04:18:30;;;;;;;115.35;13.55;;;;;;;;;;4948427;28;20066;-54
2021/05/10 04:20:57;;;;;;;18.20;12.38;;;;;;;;;;4946264;28;20058;-57
2021/05/10 04:23:24;;;;;;;20.70;13.18;;;;;;;;;;4943920;28;20051;-55
2021/05/10 04:25:51;;;;;;;18.85;12.75;;;;;;;;;;4945201;28;20051;-57
2021/05/10 04:28:18;;;;;;;17.80;12.52;;;;;;;;;;4947216;28;20074;-55
2021/05/10 04:30:45;;;;;;;17.90;11.65;;;;;;;;;;4945605;28;20039;-55
2021/05/10 04:33:11;;;;;;;15.70;10.50;;;;;;;;;;4949112;28;20047;-57
2021/05/10 04:35:37;;;;;;;18.48;10.82;;;;;;;;;;4949991;28;20131;-56
2021/05/10 04:38:09;;;;;;;18.52;11.13;;;;;;;;;;4944804;28;20039;-56
2021/05/10 04:40:36;;;;;;;21.85;10.95;;;;;;;;;;4947667;28;20048;-54
2021/05/10 04:43:02;;;;;;;15.88;10.75;;;;;;;;;;4940651;28;20130;-57
2021/05/10 04:45:29;;;;;;;15.13;9.57;;;;;;;;;;4944439;28;20055;-57
2021/05/10 04:47:55;;;;;;;12.57;9.93;;;;;;;;;;4945685;28;20042;-56
2021/05/10 04:50:21;;;;;;;22.40;11.57;;;;;;;;;;4947524;28;20070;-57
2021/05/10 04:52:48;;;;;;;20.55;10.75;;;;;;;;;;4944688;29;20422;-55
2021/05/10 04:55:15;;;;;;;11.68;9.60;;;;;;;;;;4944444;28;20051;-57
2021/05/10 04:57:43;;;;;;;25.02;11.55;;;;;;;;;;4950596;28;20649;-56
2021/05/10 05:00:14;;;;;;;16.20;11.20;;;;;;;;;;4944100;28;20968;-57
2021/05/10 05:02:40;;;;;;;18.27;10.75;;;;;;;;;;4933622;29;20414;-57
2021/05/10 05:05:07;;;;;;;23.25;10.85;;;;;;;;;;4945521;28;20061;-57
2021/05/10 05:07:34;;;;;;;18.38;11.73;;;;;;;;;;4947365;28;20054;-54
2021/05/10 05:10:02;;;;;;;38.28;15.40;;;;;;;;;;4944847;28;20555;-54
2021/05/10 05:12:28;;;;;;;38.20;15.02;;;;;;;;;;4951008;28;20078;-56
2021/05/10 05:14:55;;;;;;;19.35;11.30;;;;;;;;;;4946677;28;20146;-55
2021/05/10 05:17:21;;;;;;;15.25;9.90;;;;;;;;;;4934814;28;20050;-56
2021/05/10 05:19:47;;;;;;;10.45;7.32;;;;;;;;;;4950271;28;20403;-56
2021/05/10 05:22:15;;;;;;;17.23;8.82;;;;;;;;;;4950444;28;20051;-57
2021/05/10 05:24:41;;;;;;;12.10;9.07;;;;;;;;;;4943712;28;20095;-57
2021/05/10 05:27:08;;;;;;;13.25;9.13;;;;;;;;;;4947271;28;20130;-55
2021/05/10 05:29:35;;;;;;;14.88;8.48;;;;;;;;;;4948526;28;20044;-56
2021/05/10 05:32:01;;;;;;;15.30;9.57;;;;;;;;;;4954166;28;20142;-55
2021/05/10 05:34:27;;;;;;;17.63;8.50;;;;;;;;;;4944809;28;20491;-55
2021/05/10 05:36:54;;;;;;;13.68;8.90;;;;;;;;;;4947323;28;20392;-57
2021/05/10 05:39:20;;;;;;;19.05;10.65;;;;;;;;;;4945822;28;20600;-56
2021/05/10 05:41:49;;;;;;;24.40;10.73;;;;;;;;;;4947622;28;20043;-56
2021/05/10 05:44:16;;;;;;;20.52;11.60;;;;;;;;;;4949711;28;20044;-57
2021/05/10 05:46:45;;;;;;;13.00;9.20;;;;;;;;;;4943989;28;20419;-54
2021/05/10 05:49:12;;;;;;;12.75;7.95;;;;;;;;;;4938380;28;20039;-57
2021/05/10 05:51:39;;;;;;;12.07;8.95;;;;;;;;;;4950981;28;20062;-56
2021/05/10 05:54:06;;;;;;;15.25;8.73;;;;;;;;;;4949520;28;20067;-57
2021/05/10 05:56:32;;;;;;;10.80;8.65;;;;;;;;;;4946215;29;20067;-57
2021/05/10 05:58:59;;;;;;;10.73;8.27;;;;;;;;;;4953554;28;20566;-56
2021/05/10 06:01:25;;;;;;;13.45;8.52;;;;;;;;;;4955927;28;20126;-57
2021/05/10 06:03:56;;;;;;;13.82;8.05;;;;;;;;;;4951586;28;20507;-57
2021/05/10 06:06:22;;;;;;;7.10;5.93;;;;;;;;;;4954394;28;20463;-55
2021/05/10 06:08:49;;;;;;;10.68;5.93;;;;;;;;;;4949588;28;20039;-57
2021/05/10 06:11:15;;;;;;;8.50;6.73;;;;;;;;;;4949807;28;20140;-56
2021/05/10 06:13:43;;;;;;;10.52;7.15;;;;;;;;;;4948928;28;20521;-55
2021/05/10 06:16:11;;;;;;;13.90;7.90;;;;;;;;;;4949399;29;20075;-54
2021/05/10 06:18:37;;;;;;;11.10;7.60;;;;;;;;;;4949212;28;20039;-55
2021/05/10 06:21:05;;;;;;;16.65;8.10;;;;;;;;;;4952982;28;20054;-57
2021/05/10 06:23:32;;;;;;;16.52;8.15;;;;;;;;;;4951519;28;20102;-57
2021/05/10 06:25:58;;;;;;;11.18;7.47;;;;;;;;;;4944511;28;20048;-55
2021/05/10 06:28:24;;;;;;;24.13;8.60;;;;;;;;;;4944742;28;20040;-57
2021/05/10 06:30:50;;;;;;;12.27;8.48;;;;;;;;;;4950679;28;20094;-56
2021/05/10 06:33:17;;;;;;;12.98;9.80;;;;;;;;;;4951548;28;20895;-53
2021/05/10 06:35:44;;;;;;;;;;;;;;;;;;4955437;28;20062;-57
2021/05/10 06:38:13;;;;;;;15.77;9.90;;;;;;;;;;4948478;28;20005;-54
2021/05/10 06:40:39;;;;;;;16.85;9.50;;;;;;;;;;4946187;29;20051;-55
2021/05/10 06:43:06;;;;;;;15.57;8.03;;;;;;;;;;4954208;28;20035;-55
2021/05/10 06:45:33;;;;;;;15.85;10.07;;;;;;;;;;4948570;28;20059;-57
2021/05/10 06:47:59;;;;;;;16.38;8.63;;;;;;;;;;4950944;28;20035;-57
2021/05/10 06:50:26;;;;;;;16.38;9.10;;;;;;;;;;4949576;28;20114;-57
2021/05/10 06:52:53;;;;;;;11.10;8.13;;;;;;;;;;4949197;28;20557;-57
2021/05/10 06:55:19;;;;;;;14.10;8.90;;;;;;;;;;4950845;28;20069;-55
2021/05/10 06:57:46;;;;;;;22.95;12.15;;;;;;;;;;4951870;28;20125;-57
2021/05/10 07:00:12;;;;;;;18.45;12.20;;;;;;;;;;4952803;28;20130;-58
2021/05/10 07:02:38;;;;;;;18.60;11.73;;;;;;;;;;4947350;28;20062;-57
2021/05/10 07:05:06;;;;;;;11.93;8.60;;;;;;;;;;4949925;28;20110;-56
2021/05/10 07:07:32;;;;;;;10.23;8.13;;;;;;;;;;4951863;28;20047;-57
2021/05/10 07:09:58;;;;;;;15.02;8.55;;;;;;;;;;4952759;28;20062;-56
2021/05/10 07:12:26;;;;;;;17.02;8.63;;;;;;;;;;4955265;28;20046;-55
2021/05/10 07:14:54;;;;;;;11.48;8.18;;;;;;;;;;4951795;28;20046;-55
2021/05/10 07:17:20;;;;;;;9.90;7.28;;;;;;;;;;4952265;28;20399;-57
2021/05/10 07:19:47;;;;;;;;;;;;;;;;;;4947601;28;20097;-56
2021/05/10 07:22:13;;;;;;;15.20;7.20;;;;;;;;;;4951003;28;19926;-56
2021/05/10 07:24:39;;;;;;;13.50;7.13;;;;;;;;;;4950257;28;20043;-54
2021/05/10 07:27:06;;;;;;;9.95;6.80;;;;;;;;;;4951508;28;20047;-57
2021/05/10 07:29:34;;;;;;;16.42;6.38;;;;;;;;;;4955167;28;20059;-57
2021/05/10 07:32:00;;;;;;;11.20;7.50;;;;;;;;;;4950357;28;20056;-57
2021/05/10 07:34:29;;;;;;;9.27;6.78;;;;;;;;;;4951684;28;20475;-57
2021/05/10 07:36:55;;;;;;;9.20;6.30;;;;;;;;;;4948023;28;20043;-56
2021/05/10 07:39:21;;;;;;;8.45;6.30;;;;;;;;;;4949266;28;20051;-56
2021/05/10 07:41:48;;;;;;;7.55;5.88;;;;;;;;;;4947794;28;20047;-57
2021/05/10 07:44:14;;;;;;;9.00;5.93;;;;;;;;;;4946241;28;20047;-56
2021/05/10 07:46:41;;;;;;;7.70;5.45;;;;;;;;;;4950268;28;20043;-56
2021/05/10 07:49:07;;;;;;;10.05;6.05;;;;;;;;;;4947939;29;20388;-56
2021/05/10 07:51:33;;;;;;;8.15;6.07;;;;;;;;;;4954063;28;20126;-57
2021/05/10 07:54:01;;;;;;;6.50;4.88;;;;;;;;;;4950187;28;20054;-57
2021/05/10 07:56:29;;;;;;;;;;;;;;;;;;4948225;28;20044;-54
2021/05/10 07:58:58;;;;;;;10.77;5.20;;;;;;;;;;4946300;28;19930;-56
2021/05/10 08:01:25;;;;;;;7.57;5.95;;;;;;;;;;4947980;28;20133;-57
2021/05/10 08:03:51;;;;;;;8.63;5.47;;;;;;;;;;4953463;28;20074;-55
2021/05/10 08:06:17;;;;;;;9.25;5.70;;;;;;;;;;4945750;28;20492;-56
2021/05/10 08:08:43;;;;;;;12.38;6.13;;;;;;;;;;4944549;29;20047;-56
2021/05/10 08:11:10;;;;;;;10.05;5.82;;;;;;;;;;4948591;28;20045;-57
2021/05/10 08:13:36;;;;;;;7.35;5.60;;;;;;;;;;4943001;28;20051;-56
2021/05/10 08:16:02;;;;;;;7.22;5.70;;;;;;;;;;4946543;28;20050;-57
2021/05/10 08:18:29;;;;;;;6.60;4.80;;;;;;;;;;4949284;28;20043;-54
2021/05/10 08:20:57;;;;;;;5.78;4.88;;;;;;;;;;4952604;28;20524;-56
2021/05/10 08:23:24;;;;;;;8.02;4.60;;;;;;;;;;4949518;28;20043;-57
2021/05/10 08:25:52;;;;;;;;;;;;;;;;;;4948573;28;20035;-54
2021/05/10 08:28:20;;;;;;;6.85;4.45;;;;;;;;;;4944548;28;20018;-57
2021/05/10 08:30:47;;;;;;;8.07;4.80;;;;;;;;;;4943398;28;20118;-57
2021/05/10 08:33:14;;;;;;;12.30;4.30;;;;;;;;;;4946412;28;20610;-57
2021/05/10 08:35:40;;;;;;;6.43;4.72;;;;;;;;;;4948999;28;20122;-56
2021/05/10 08:38:07;;;;;;;10.65;4.53;;;;;;;;;;4950571;28;20058;-57
2021/05/10 08:40:33;;;;;;;8.55;4.45;;;;;;;;;;4948222;28;20035;-56
2021/05/10 08:43:00;;;;;;;5.75;3.95;;;;;;;;;;4948241;28;20058;-57
2021/05/10 08:45:26;;;;;;;7.10;4.60;;;;;;;;;;4947705;28;20046;-57
2021/05/10 08:47:57;;;;;;;5.65;3.63;;;;;;;;;;4953436;28;20053;-57
2021/05/10 08:50:24;;;;;;;7.78;4.35;;;;;;;;;;4946763;28;20082;-56
2021/05/10 08:52:50;;;;;;;7.90;4.20;;;;;;;;;;4947143;28;20131;-54
2021/05/10 08:55:17;;;;;;;6.93;4.70;;;;;;;;;;4950805;28;20047;-56
2021/05/10 08:57:43;;;;;;;9.10;4.38;;;;;;;;;;4950461;28;20067;-58
2021/05/10 09:00:12;;;;;;;5.78;4.00;;;;;;;;;;4946121;28;20054;-57
2021/05/10 09:02:38;;;;;;;5.78;4.28;;;;;;;;;;4946732;28;20043;-57
2021/05/10 09:05:05;;;;;;;;;;;;;;;;;;4949477;28;20121;-54
2021/05/10 09:07:33;;;;;;;6.68;3.58;;;;;;;;;;4947345;28;19945;-57
2021/05/10 09:09:59;;;;;;;;;;;;;;;;;;4955498;28;20636;-57
2021/05/10 09:12:45;;;;;;;4.97;3.70;;;;;;;;;;4947776;28;20367;-57
2021/05/10 09:15:25;;;;;;;4.65;3.67;;;;;;;;;;4944848;28;20054;-57
2021/05/10 09:17:52;;;;;;;7.78;4.80;;;;;;;;;;4944125;28;20061;-57
2021/05/10 09:20:20;;;;;;;5.75;4.45;;;;;;;;;;4947217;28;20050;-56
2021/05/10 09:22:47;;;;;;;7.47;4.38;;;;;;;;;;4951064;28;20047;-56
2021/05/10 09:25:14;;;;;;;7.28;3.85;;;;;;;;;;4950892;28;20125;-57
2021/05/10 09:27:45;;;;;;;5.97;4.18;;;;;;;;;;4951288;28;20279;-57
2021/05/10 09:30:13;;;;;;;5.50;3.90;;;;;;;;;;4953223;28;20211;-57
2021/05/10 09:32:39;;;;;;;8.15;4.35;;;;;;;;;;4954599;28;20059;-56
2021/05/10 09:35:27;;;;;;;7.28;4.10;;;;;;;;;;4944605;28;20105;-56
2021/05/10 09:37:55;;;;;;;5.10;3.70;;;;;;;;;;4952358;28;20574;-57
2021/05/10 09:40:21;;;;;;;5.78;3.95;;;;;;;;;;4950793;28;20052;-57
2021/05/10 09:43:05;;;;;;;7.20;3.92;;;;;;;;;;4945680;28;20067;-57
2021/05/10 09:45:32;;;;;;;;;;;;;;;;;;4957194;28;20517;-56
2021/05/10 09:48:02;;;;;;;6.93;3.78;;;;;;;;;;4947364;28;19926;-56
2021/05/10 09:50:32;;;;;;;6.43;3.40;;;;;;;;;;4950055;28;20142;-55
2021/05/10 09:53:01;;;;;;;5.35;3.50;;;;;;;;;;4949871;28;20043;-55
2021/05/10 09:55:43;;;;;;;4.38;3.35;;;;;;;;;;4953308;28;20051;-56
2021/05/10 09:58:11;;;;;;;5.78;3.35;;;;;;;;;;4944263;29;20051;-57
2021/05/10 10:00:38;;;;;;;6.77;3.20;;;;;;;;;;4952336;28;20062;-57
2021/05/10 10:03:06;;;;;;;5.75;3.47;;;;;;;;;;4950454;28;20354;-56
2021/05/10 10:05:32;;;;;;;4.22;3.67;;;;;;;;;;4949948;28;20094;-55
2021/05/10 10:07:59;;;;;;;7.85;3.50;;;;;;;;;;4949148;28;20047;-56
2021/05/10 10:10:25;;;;;;;7.68;3.83;;;;;;;;;;4952151;28;20045;-57
2021/05/10 10:12:54;;;;;;;4.50;3.42;;;;;;;;;;4947607;29;20043;-57
2021/05/10 10:15:20;;;;;;;4.22;3.53;;;;;;;;;;4949966;29;20391;-57
2021/05/10 10:17:47;;;;;;;7.45;3.38;;;;;;;;;;4949823;29;20507;-57
2021/05/10 10:20:14;;;;;;;6.03;3.58;;;;;;;;;;4950846;28;20156;-56
2021/05/10 10:22:41;;;;;;;4.35;3.70;;;;;;;;;;4928442;29;20542;-56
2021/05/10 10:25:07;;;;;;;5.63;3.65;;;;;;;;;;4948547;28;20039;-57
2021/05/10 10:27:56;;;;;;;;;;;;;;;;;;4947846;29;20051;-57
2021/05/10 10:30:24;;;;;;;5.50;3.20;;;;;;;;;;4946951;29;19926;-57
2021/05/10 10:32:51;;;;;;;4.05;3.40;;;;;;;;;;4949230;28;20062;-57
2021/05/10 10:35:32;;;;;;;8.13;3.75;;;;;;;;;;4949214;28;20049;-57
2021/05/10 10:38:00;;;;;;;5.17;3.30;;;;;;;;;;4946248;28;20050;-56
2021/05/10 10:40:26;;;;;;;6.28;3.22;;;;;;;;;;4949181;28;20136;-56
2021/05/10 10:42:52;;;;;;;7.25;3.00;;;;;;;;;;4953059;28;20633;-57
2021/05/10 10:45:22;;;;;;;6.30;3.78;;;;;;;;;;4948122;29;20047;-57
2021/05/10 10:47:57;;;;;;;3.92;3.10;;;;;;;;;;4952903;28;20406;-57
2021/05/10 10:50:28;;;;;;;4.65;4.00;;;;;;;;;;4949454;28;20035;-57
2021/05/10 10:52:59;;;;;;;7.32;3.53;;;;;;;;;;4954541;28;20058;-57
2021/05/10 10:55:34;;;;;;;6.07;3.08;;;;;;;;;;4954388;28;20053;-56
2021/05/10 10:58:21;;;;;;;7.32;3.42;;;;;;;;;;4949421;28;20062;-57
2021/05/10 11:00:56;;;;;;;3.63;2.65;;;;;;;;;;4947925;28;20055;-57
2021/05/10 11:03:23;;;;;;;5.07;3.22;;;;;;;;;;4948621;28;20073;-57
2021/05/10 11:05:50;;;;;;;4.95;3.30;;;;;;;;;;4950138;28;20123;-56
2021/05/10 11:08:16;;;;;;;6.05;3.35;;;;;;;;;;4946224;28;20487;-58
2021/05/10 11:10:50;;;;;;;4.78;3.20;;;;;;;;;;4948139;28;20580;-58
2021/05/10 11:13:28;;;;;;;5.05;3.47;;;;;;;;;;4956338;28;20074;-55
2021/05/10 11:16:05;;;;;;;8.57;3.10;;;;;;;;;;4950063;28;20403;-56
2021/05/10 11:18:45;;;;;;;6.63;3.23;;;;;;;;;;4946846;28;20056;-58
2021/05/10 11:21:21;;;;;;;8.27;3.42;;;;;;;;;;4946195;28;20043;-57
2021/05/10 11:23:51;;;;;;;6.07;3.72;;;;;;;;;;4947632;28;20052;-57
2021/05/10 11:26:36;;;;;;;6.07;3.30;;;;;;;;;;4944915;28;20052;-57
2021/05/10 11:29:07;;;;;;;5.55;3.30;;;;;;;;;;4949768;28;20047;-58
2021/05/10 11:31:37;;;;;;;3.47;2.92;;;;;;;;;;4950119;28;20051;-58
2021/05/10 11:34:09;;;;;;;8.13;3.20;;;;;;;;;;4943831;28;20600;-58
2021/05/10 11:36:46;;;;;;;5.53;3.60;;;;;;;;;;4953959;28;20094;-59
2021/05/10 11:39:15;;;;;;;4.80;3.40;;;;;;;;;;4950645;29;20055;-56
2021/05/10 11:41:43;;;;;;;7.85;3.58;;;;;;;;;;4951182;28;20061;-58
2021/05/10 11:44:35;;;;;;;8.05;3.30;;;;;;;;;;4951784;28;20139;-58
2021/05/10 11:47:07;;;;;;;5.10;3.50;;;;;;;;;;4950474;28;20063;-57
2021/05/10 11:49:37;;;;;;;7.88;3.30;;;;;;;;;;4944592;29;20062;-58
2021/05/10 11:52:06;;;;;;;6.45;3.67;;;;;;;;;;4949638;28;20507;-58
2021/05/10 11:54:33;;;;;;;8.98;3.45;;;;;;;;;;4945758;28;20122;-59
2021/05/10 11:57:02;;;;;;;5.60;3.40;;;;;;;;;;4948776;28;20388;-59
2021/05/10 12:02:33;;;;;;;5.03;3.40;;;;;;;;;;4867870;29;20321;-58
2021/05/10 12:05:05;;;;;;;3.85;2.90;;;;;;;;;;4932712;28;20055;-58
2021/05/10 12:07:32;;;;;;;8.00;3.33;;;;;;;;;;4952318;29;20507;-58
2021/05/10 12:10:02;;;;;;;6.53;3.08;;;;;;;;;;4950648;28;20126;-58
2021/05/10 12:12:47;;;;;;;5.38;3.22;;;;;;;;;;4951448;28;20106;-57
2021/05/10 12:15:27;;;;;;;4.03;3.25;;;;;;;;;;4949572;28;20047;-59
2021/05/10 12:18:00;;;;;;;6.45;3.42;;;;;;;;;;4946152;28;20046;-59
2021/05/10 12:20:29;;;;;;;6.28;3.17;;;;;;;;;;4945611;28;20054;-58
2021/05/10 12:23:00;;;;;;;6.75;3.42;;;;;;;;;;4948859;28;20047;-58
2021/05/10 12:25:28;;;;;;;5.78;3.38;;;;;;;;;;4949300;28;20043;-59
2021/05/10 12:28:14;;;;;;;7.85;3.55;;;;;;;;;;4949146;28;20467;-59
2021/05/10 12:30:41;;;;;;;5.90;3.58;;;;;;;;;;4944154;28;20045;-59
2021/05/10 12:33:15;;;;;;;5.43;3.47;;;;;;;;;;4942197;28;20411;-59
2021/05/10 12:35:52;;;;;;;4.47;3.03;;;;;;;;;;4950626;28;20046;-59
2021/05/10 12:38:28;;;;;;;6.00;3.38;;;;;;;;;;4947125;28;20058;-59
2021/05/10 12:40:56;;;;;;;9.40;3.42;;;;;;;;;;4948459;28;20049;-59
2021/05/10 12:43:25;;;;;;;7.85;3.30;;;;;;;;;;4951418;28;20050;-59
2021/05/10 12:45:59;;;;;;;6.72;3.15;;;;;;;;;;4949942;28;20049;-58
2021/05/10 12:48:27;;;;;;;3.65;2.90;;;;;;;;;;4945536;28;20055;-59
2021/05/10 12:50:54;;;;;;;6.72;3.47;;;;;;;;;;4949675;28;20512;-59
2021/05/10 12:53:46;;;;;;;4.53;3.20;;;;;;;;;;4958273;28;20062;-59
2021/05/10 12:56:17;;;;;;;5.07;3.10;;;;;;;;;;4946187;28;20047;-58
2021/05/10 12:58:47;;;;;;;9.18;3.22;;;;;;;;;;4945261;28;20119;-59
2021/05/10 13:01:17;;;;;;;3.25;2.72;;;;;;;;;;4955319;28;20054;-59
2021/05/10 13:03:44;;;;;;;4.93;3.45;;;;;;;;;;4949909;28;20043;-59
2021/05/10 13:06:14;;;;;;;;;;;;;;;;;;4952973;28;20048;-59
2021/05/10 13:08:50;;;;;;;6.90;3.22;;;;;;;;;;4950490;28;19934;-59
2021/05/10 13:11:17;;;;;;;5.07;2.80;;;;;;;;;;4951543;28;20392;-59
2021/05/10 13:14:10;;;;;;;6.40;2.67;;;;;;;;;;4955444;28;20039;-59
2021/05/10 13:36:21;;;;;;;6.43;2.88;;;;;;;;;;4952035;28;20468;-59
2021/05/10 13:38:48;;;;;;;4.95;2.88;;;;;;;;;;4953089;29;20062;-59
2021/05/10 13:41:14;;;;;;;13.55;3.08;;;;;;;;;;4952676;29;20047;-60
2021/05/10 13:46:10;;;;;;;4.60;2.70;;;;;;;;;;4954797;28;20806;-59
2021/05/10 13:48:37;;;;;;;8.20;2.97;;;;;;;;;;4949295;28;20052;-60
2021/05/10 13:51:03;;;;;;;7.28;3.40;;;;;;;;;;4952971;28;20491;-59
2021/05/10 13:53:31;;;;;;;7.45;2.90;;;;;;;;;;4954703;28;20051;-59
2021/05/10 13:55:57;;;;;;;7.05;2.45;;;;;;;;;;4953391;28;20051;-59
2021/05/10 13:58:23;;;;;;;4.60;2.70;;;;;;;;;;4954099;28;20039;-59
2021/05/10 14:00:50;;;;;;;9.93;2.90;;;;;;;;;;4938247;28;20047;-59
2021/05/10 14:03:17;;;;;;;5.43;2.67;;;;;;;;;;4954164;28;20051;-59
2021/05/10 14:05:43;;;;;;;7.50;3.00;;;;;;;;;;4951887;28;20130;-59
2021/05/10 14:08:10;;;;;;;9.00;3.35;;;;;;;;;;4951854;28;20052;-58
2021/05/10 14:10:39;;;;;;;4.80;2.80;;;;;;;;;;4950965;28;20126;-58
2021/05/10 14:13:05;;;;;;;6.82;3.20;;;;;;;;;;4948223;28;20039;-57
2021/05/10 14:15:32;;;;;;;9.13;3.10;;;;;;;;;;4932927;29;20039;-59
2021/05/10 14:17:59;;;;;;;9.10;2.97;;;;;;;;;;4931970;29;20058;-59
2021/05/10 14:21:56;;;;;;;8.77;3.20;;;;;;;;;;4950458;28;20035;-59
2021/05/10 14:23:14;;;;;;;6.05;2.97;;;;;;;;;;4950833;28;20044;-58
2021/05/10 14:25:41;;;;;;;9.32;3.20;;;;;;;;;;4954459;28;20495;-59
2021/05/10 14:28:07;;;;;;;6.80;3.22;;;;;;;;;;4950792;28;20110;-59
2021/05/10 14:30:33;;;;;;;7.03;3.30;;;;;;;;;;4953219;28;20041;-59
2021/05/10 14:33:01;;;;;;;6.00;2.95;;;;;;;;;;4950279;29;20055;-58
2021/05/10 14:35:28;;;;;;;8.45;3.00;;;;;;;;;;4952910;28;20448;-59
2021/05/10 14:37:54;;;;;;;7.88;3.13;;;;;;;;;;4953986;28;20047;-59
2021/05/10 14:40:20;;;;;;;7.90;3.83;;;;;;;;;;4949539;28;20131;-59
2021/05/10 14:43:01;;;;;;;7.43;3.35;;;;;;;;;;4949761;28;20039;-59
2021/05/10 14:45:28;;;;;;;6.70;3.88;;;;;;;;;;4932294;28;20049;-59
2021/05/10 14:47:54;;;;;;;10.18;3.45;;;;;;;;;;4950081;28;20047;-58
2021/05/10 14:50:20;;;;;;;4.20;3.30;;;;;;;;;;4942211;28;20038;-58
2021/05/10 14:52:47;;;;;;;;;;;;;;;;;;4950795;28;20050;-58
2021/05/10 14:55:13;;;;;;;7.88;3.30;;;;;;;;;;4943678;28;19926;-58
2021/05/10 14:57:39;;;;;;;10.35;3.28;;;;;;;;;;4950804;28;20039;-59
2021/05/10 15:00:06;;;;;;;10.73;3.53;;;;;;;;;;4934699;28;20043;-59
2021/05/10 15:02:33;;;;;;;8.32;3.53;;;;;;;;;;4949147;28;20427;-57
2021/05/10 15:04:59;;;;;;;5.53;3.30;;;;;;;;;;4945625;28;20075;-59
2021/05/10 15:07:25;;;;;;;6.45;3.13;;;;;;;;;;4949131;29;20047;-59
2021/05/10 15:09:52;;;;;;;7.57;3.28;;;;;;;;;;4950747;28;20055;-59